createdAt,value
2023-05-07T00:00:45.532Z,984.7
2023-05-07T00:02:46.969Z,984.6
2023-05-07T00:04:48.168Z,984.6
2023-05-07T00:08:50.985Z,984.5
2023-05-07T00:10:52.892Z,984.5
2023-05-07T00:12:53.897Z,984.6
2023-05-07T00:14:54.886Z,984.6
2023-05-07T00:18:57.698Z,984.6
2023-05-07T00:20:58.654Z,984.6
2023-05-07T00:25:01.178Z,984.6
2023-05-07T00:29:03.549Z,984.5
2023-05-07T00:31:05.373Z,984.5
2023-05-07T00:35:08.802Z,984.6
2023-05-07T00:39:11.458Z,984.5
2023-05-07T00:41:12.554Z,984.5
2023-05-07T00:45:15.663Z,984.5
2023-05-07T00:47:16.623Z,984.5
2023-05-07T00:50:01.669Z,984.5
2023-05-07T00:52:02.724Z,984.5
2023-05-07T00:56:05.527Z,984.4
2023-05-07T00:58:06.578Z,984.4
2023-05-07T01:02:09.647Z,984.3
2023-05-07T01:06:13.169Z,984.3
2023-05-07T01:08:14.252Z,984.3
2023-05-07T01:12:16.396Z,984.5
2023-05-07T01:14:17.415Z,984.5
2023-05-07T01:18:20.064Z,984.4
2023-05-07T01:22:23.372Z,984.5
2023-05-07T01:24:24.382Z,984.3
2023-05-07T01:26:25.836Z,984.4
2023-05-07T01:28:27.206Z,984.4
2023-05-07T01:32:30.343Z,984.5
2023-05-07T01:34:31.937Z,984.5
2023-05-07T01:38:34.989Z,984.4
2023-05-07T01:40:36.517Z,984.4
2023-05-07T01:44:39.523Z,984.4
2023-05-07T01:48:42.322Z,984.3
2023-05-07T01:50:43.845Z,984.4
2023-05-07T01:54:46.791Z,984.3
2023-05-07T02:00:51.144Z,984.3
2023-05-07T02:04:53.682Z,984.3
2023-05-07T02:06:55.279Z,984.3
2023-05-07T02:10:58.006Z,984.4
2023-05-07T02:15:00.874Z,984.4
2023-05-07T02:17:02.514Z,984.5
2023-05-07T02:19:04.324Z,984.4
2023-05-07T02:21:05.551Z,984.4
2023-05-07T02:23:07.301Z,984.4
2023-05-07T02:27:10.675Z,984.5
2023-05-07T02:29:12.017Z,984.4
2023-05-07T02:31:13.343Z,984.4
2023-05-07T02:33:14.648Z,984.4
2023-05-07T02:37:16.613Z,984.5
2023-05-07T02:39:18.124Z,984.5
2023-05-07T02:43:21.119Z,984.5
2023-05-07T02:47:24.166Z,984.4
2023-05-07T02:49:25.790Z,984.4
2023-05-07T02:53:29.045Z,984.3
2023-05-07T02:57:31.806Z,984.4
2023-05-07T02:59:33.248Z,984.4
2023-05-07T03:03:36.041Z,984.4
2023-05-07T03:05:37.008Z,984.4
2023-05-07T03:09:39.923Z,984.3
2023-05-07T03:13:42.690Z,984.4
2023-05-07T03:15:44.007Z,984.3
2023-05-07T03:19:46.379Z,984.3
2023-05-07T03:21:47.514Z,984.3
2023-05-07T03:25:50.115Z,984.3
2023-05-07T03:29:53.142Z,984.4
2023-05-07T03:31:55.039Z,984.4
2023-05-07T03:35:57.483Z,984.4
2023-05-07T03:40:00.464Z,984.4
2023-05-07T03:42:01.841Z,984.4
2023-05-07T03:46:04.848Z,984.4
2023-05-07T03:48:05.993Z,984.4
2023-05-07T03:52:08.925Z,984.5
2023-05-07T03:56:10.956Z,984.6
2023-05-07T03:58:12.589Z,984.5
2023-05-07T04:02:15.939Z,984.5
2023-05-07T04:04:17.220Z,984.6
2023-05-07T04:08:19.797Z,984.6
2023-05-07T04:10:20.745Z,984.6
2023-05-07T04:14:24.515Z,984.5
2023-05-07T04:18:26.899Z,984.5
2023-05-07T04:20:28.268Z,984.5
2023-05-07T04:24:31.053Z,984.6
2023-05-07T04:28:33.608Z,984.6
2023-05-07T04:30:35.166Z,984.6
2023-05-07T04:34:38.140Z,984.6
2023-05-07T04:36:38.974Z,984.7
2023-05-07T04:40:42.123Z,984.7
2023-05-07T04:44:45.311Z,984.7
2023-05-07T04:46:48.144Z,984.7
2023-05-07T04:50:50.636Z,984.7
2023-05-07T04:52:53.486Z,984.8
2023-05-07T04:56:55.051Z,984.7
2023-05-07T05:00:57.549Z,984.9
2023-05-07T05:02:58.647Z,984.8
2023-05-07T05:07:10.888Z,984.9
2023-05-07T05:11:04.243Z,984.9
2023-05-07T05:13:05.559Z,984.9
2023-05-07T05:17:08.936Z,985
2023-05-07T05:19:10.064Z,985
2023-05-07T05:23:13.434Z,984.9
2023-05-07T05:27:14.335Z,984.9
2023-05-07T05:29:16.052Z,984.9
2023-05-07T05:31:17.490Z,984.9
2023-05-07T05:33:19.392Z,985
2023-05-07T05:35:20.636Z,985
2023-05-07T05:39:23.298Z,985
2023-05-07T05:43:26.076Z,985
2023-05-07T05:45:27.831Z,985
2023-05-07T05:49:31.029Z,984.9
2023-05-07T05:53:34.955Z,984.9
2023-05-07T05:55:35.999Z,984.9
2023-05-07T05:59:39.746Z,985.1
2023-05-07T06:01:40.032Z,985.1
2023-05-07T06:03:40.825Z,985
2023-05-07T06:05:42.191Z,985
2023-05-07T06:09:44.798Z,985.1
2023-05-07T06:11:45.669Z,985
2023-05-07T06:13:46.702Z,985.1
2023-05-07T06:15:48.018Z,985
2023-05-07T06:17:49.832Z,985
2023-05-07T06:21:52.343Z,984.9
2023-05-07T06:23:54.120Z,985
2023-05-07T06:25:55.196Z,985
2023-05-07T06:27:56.929Z,985
2023-05-07T06:31:59.909Z,985.1
2023-05-07T06:34:01.740Z,985
2023-05-07T06:38:04.093Z,985.1
2023-05-07T06:42:06.607Z,985.2
2023-05-07T06:44:09.634Z,985.1
2023-05-07T06:48:10.171Z,985.1
2023-05-07T06:52:12.870Z,985.1
2023-05-07T06:54:14.587Z,985.1
2023-05-07T06:58:17.239Z,985
2023-05-07T07:00:19.006Z,985.1
2023-05-07T07:04:21.078Z,985
2023-05-07T07:08:23.634Z,985.1
2023-05-07T07:10:24.466Z,985.1
2023-05-07T07:14:27.396Z,985
2023-05-07T07:16:29.075Z,985.1
2023-05-07T07:20:31.673Z,985.1
2023-05-07T07:24:34.344Z,985
2023-05-07T07:26:35.663Z,985
2023-05-07T07:30:38.626Z,985.1
2023-05-07T07:35:25.662Z,985
2023-05-07T07:37:26.360Z,985.1
2023-05-07T07:41:28.857Z,985.2
2023-05-07T07:45:31.988Z,985.2
2023-05-07T07:47:33.068Z,985.3
2023-05-07T07:51:35.516Z,985.2
2023-05-07T07:53:36.665Z,985.1
2023-05-07T07:57:38.524Z,985.2
2023-05-07T07:59:39.450Z,985.2
2023-05-07T08:01:40.772Z,985.3
2023-05-07T08:03:42.115Z,985.3
2023-05-07T08:07:44.428Z,985.2
2023-05-07T08:09:45.312Z,985.2
2023-05-07T08:13:48.654Z,985.3
2023-05-07T08:17:51.735Z,985.3
2023-05-07T08:19:53.481Z,985.3
2023-05-07T08:23:56.361Z,985.3
2023-05-07T08:27:58.827Z,985.2
2023-05-07T08:29:59.749Z,985.1
2023-05-07T08:34:02.868Z,985.3
2023-05-07T08:36:04.420Z,985.2
2023-05-07T08:40:08.247Z,985.1
2023-05-07T08:44:08.941Z,985.2
2023-05-07T08:46:10.600Z,985.1
2023-05-07T08:50:13.612Z,985.2
2023-05-07T08:52:15.045Z,985
2023-05-07T08:56:17.745Z,985.1
2023-05-07T09:00:20.267Z,985.1
2023-05-07T09:02:22.013Z,985.1
2023-05-07T09:06:25.257Z,985.2
2023-05-07T09:10:27.665Z,985.4
2023-05-07T09:12:29.286Z,985.4
2023-05-07T09:16:32.742Z,985.3
2023-05-07T09:18:33.980Z,985.3
2023-05-07T09:22:36.598Z,985.3
2023-05-07T09:26:39.038Z,985.3
2023-05-07T09:28:40.074Z,985.3
2023-05-07T09:32:42.823Z,985.2
2023-05-07T09:34:44.510Z,985.2
2023-05-07T09:38:47.706Z,985.3
2023-05-07T09:42:50.269Z,985.3
2023-05-07T09:44:51.569Z,985.3
2023-05-07T09:47:01.849Z,985.2
2023-05-07T09:48:54.565Z,985.2
2023-05-07T09:52:57.413Z,985.2
2023-05-07T09:54:58.226Z,985.2
2023-05-07T09:59:00.322Z,985.1
2023-05-07T10:01:01.465Z,985
2023-05-07T10:03:02.320Z,985
2023-05-07T10:05:03.327Z,985
2023-05-07T10:09:05.699Z,985
2023-05-07T10:11:06.798Z,985
2023-05-07T10:13:07.812Z,985
2023-05-07T10:15:09.421Z,984.9
2023-05-07T10:17:11.057Z,985
2023-05-07T10:21:13.127Z,985
2023-05-07T10:23:13.985Z,984.9
2023-05-07T10:25:14.925Z,985
2023-05-07T10:27:16.015Z,984.9
2023-05-07T10:31:18.870Z,985
2023-05-07T10:33:19.751Z,984.9
2023-05-07T10:37:21.822Z,984.9
2023-05-07T10:41:24.397Z,984.9
2023-05-07T10:43:25.774Z,985
2023-05-07T10:47:28.983Z,984.8
2023-05-07T10:51:32.141Z,985
2023-05-07T10:53:33.758Z,985
2023-05-07T10:57:35.613Z,984.9
2023-05-07T10:59:37.073Z,985
2023-05-07T11:03:39.898Z,985
2023-05-07T11:07:41.928Z,984.9
2023-05-07T11:09:42.985Z,984.9
2023-05-07T11:13:45.515Z,984.8
2023-05-07T11:15:46.333Z,984.9
2023-05-07T11:19:49.535Z,984.9
2023-05-07T11:23:52.230Z,984.7
2023-05-07T11:25:53.505Z,984.8
2023-05-07T11:29:56.048Z,984.9
2023-05-07T11:33:58.763Z,984.8
2023-05-07T11:35:59.656Z,984.9
2023-05-07T11:40:02.542Z,984.8
2023-05-07T11:42:04.294Z,984.8
2023-05-07T11:44:05.895Z,984.8
2023-05-07T11:46:07.172Z,984.8
2023-05-07T11:50:09.755Z,984.7
2023-05-07T11:52:10.646Z,984.8
2023-05-07T11:54:11.515Z,984.8
2023-05-07T11:56:13.597Z,984.7
2023-05-07T11:58:14.782Z,984.8
2023-05-07T12:02:16.793Z,984.6
2023-05-07T12:06:18.705Z,984.7
2023-05-07T12:08:19.582Z,984.7
2023-05-07T12:12:21.665Z,984.7
2023-05-07T12:14:22.517Z,984.7
2023-05-07T12:18:24.969Z,984.7
2023-05-07T12:22:27.422Z,984.7
2023-05-07T12:24:29.606Z,984.7
2023-05-07T12:28:31.755Z,984.6
2023-05-07T12:32:34.234Z,984.6
2023-05-07T12:34:35.250Z,984.6
2023-05-07T12:38:38.241Z,984.6
2023-05-07T12:40:39.210Z,984.7
2023-05-07T12:44:41.723Z,984.5
2023-05-07T12:48:44.328Z,984.6
2023-05-07T12:50:45.665Z,984.6
2023-05-07T12:54:47.368Z,984.5
2023-05-07T12:56:48.299Z,984.5
2023-05-07T13:00:50.985Z,984.4
2023-05-07T13:04:53.859Z,984.3
2023-05-07T13:06:54.878Z,984.4
2023-05-07T13:10:57.229Z,984.4
2023-05-07T13:17:00.508Z,984.4
2023-05-07T13:21:03.154Z,984.4
2023-05-07T13:23:04.151Z,984.4
2023-05-07T13:25:06.427Z,984.4
2023-05-07T13:27:08.013Z,984.3
2023-05-07T13:31:10.549Z,984.3
2023-05-07T13:33:12.047Z,984.3
2023-05-07T13:35:13.133Z,984.3
2023-05-07T13:37:13.866Z,984.3
2023-05-07T13:39:15.053Z,984.3
2023-05-07T13:43:17.734Z,984.1
2023-05-07T13:47:21.501Z,984.1
2023-05-07T13:49:21.770Z,984.2
2023-05-07T13:53:23.516Z,984.1
2023-05-07T13:55:25.000Z,984.1
2023-05-07T13:59:26.862Z,984
2023-05-07T14:03:29.866Z,984
2023-05-07T14:05:31.252Z,984.1
2023-05-07T14:09:33.524Z,984
2023-05-07T14:13:36.609Z,984.1
2023-05-07T14:15:37.590Z,984
2023-05-07T14:20:23.773Z,984
2023-05-07T14:24:37.390Z,983.9
2023-05-07T14:26:27.871Z,983.8
2023-05-07T14:30:30.785Z,983.9
2023-05-07T14:32:31.967Z,984
2023-05-07T14:36:33.980Z,983.9
2023-05-07T14:40:37.343Z,984
2023-05-07T14:42:38.096Z,984
2023-05-07T14:46:40.853Z,984.1
2023-05-07T14:52:45.022Z,984.1
2023-05-07T14:56:47.696Z,984
2023-05-07T14:58:49.240Z,984.1
2023-05-07T15:02:52.306Z,984.1
2023-05-07T15:06:54.293Z,984
2023-05-07T15:08:55.403Z,984.1
2023-05-07T15:12:57.772Z,984.1
2023-05-07T15:14:58.983Z,984.3
2023-05-07T15:19:01.693Z,984.2
2023-05-07T15:23:04.493Z,984.4
2023-05-07T15:25:05.500Z,984.3
2023-05-07T15:29:08.290Z,984.3
2023-05-07T15:31:09.866Z,984.4
2023-05-07T15:35:12.410Z,984.4
2023-05-07T15:39:14.821Z,984.4
2023-05-07T15:41:16.139Z,984.4
2023-05-07T15:45:18.656Z,984.4
2023-05-07T15:49:21.154Z,984.4
2023-05-07T15:51:22.822Z,984.5
2023-05-07T15:55:25.217Z,984.6
2023-05-07T15:57:26.395Z,984.5
2023-05-07T15:59:27.391Z,984.5
2023-05-07T16:01:28.756Z,984.5
2023-05-07T16:05:30.568Z,984.5
2023-05-07T16:07:31.859Z,984.5
2023-05-07T16:09:32.809Z,984.6
2023-05-07T16:11:34.248Z,984.6
2023-05-07T16:13:35.504Z,984.6
2023-05-07T16:17:38.141Z,984.8
2023-05-07T16:21:40.845Z,985.1
2023-05-07T16:23:42.021Z,985
2023-05-07T16:27:45.221Z,985.1
2023-05-07T16:29:46.168Z,985.2
2023-05-07T16:33:48.881Z,985.4
2023-05-07T16:37:51.189Z,985.5
2023-05-07T16:39:52.904Z,985.4
2023-05-07T16:43:55.722Z,985.5
2023-05-07T16:47:59.022Z,985.5
2023-05-07T16:50:00.106Z,985.5
2023-05-07T16:54:03.303Z,985.5
2023-05-07T16:56:04.202Z,985.5
2023-05-07T17:00:07.633Z,985.5
2023-05-07T17:04:09.507Z,985.4
2023-05-07T17:06:11.319Z,985.5
2023-05-07T17:10:14.092Z,985.5
2023-05-07T17:12:15.358Z,985.5
2023-05-07T17:16:18.123Z,985.5
2023-05-07T17:20:20.189Z,985.4
2023-05-07T17:22:21.584Z,985.5
2023-05-07T17:26:24.380Z,985.5
2023-05-07T17:30:27.165Z,985.5
2023-05-07T17:32:28.380Z,985.6
2023-05-07T17:36:30.927Z,985.6
2023-05-07T17:38:32.529Z,985.7
2023-05-07T17:42:35.258Z,985.7
2023-05-07T17:46:37.890Z,985.6
2023-05-07T17:48:39.518Z,985.7
2023-05-07T17:52:42.083Z,985.8
2023-05-07T17:54:43.833Z,985.8
2023-05-07T17:58:58.481Z,985.8
2023-05-07T18:02:50.852Z,985.9
2023-05-07T18:04:51.881Z,986
2023-05-07T18:08:54.546Z,986.2
2023-05-07T18:12:57.098Z,986.2
2023-05-07T18:14:58.629Z,986.2
2023-05-07T18:19:01.331Z,986.2
2023-05-07T18:21:02.226Z,986.3
2023-05-07T18:23:03.117Z,986.3
2023-05-07T18:25:04.303Z,986.3
2023-05-07T18:29:06.432Z,986.3
2023-05-07T18:31:07.415Z,986.4
2023-05-07T18:35:09.284Z,986.3
2023-05-07T18:37:11.109Z,986.4
2023-05-07T18:41:13.293Z,986.4
2023-05-07T18:45:15.720Z,986.3
2023-05-07T18:47:16.986Z,986.3
2023-05-07T18:51:19.748Z,986.4
2023-05-07T18:53:20.867Z,986.4
2023-05-07T18:57:23.398Z,986.5
2023-05-07T19:01:25.517Z,986.6
2023-05-07T19:03:26.709Z,986.6
2023-05-07T19:07:29.335Z,986.6
2023-05-07T19:11:31.534Z,986.5
2023-05-07T19:13:32.913Z,986.6
2023-05-07T19:17:35.939Z,986.6
2023-05-07T19:19:37.735Z,986.6
2023-05-07T19:23:40.511Z,986.6
2023-05-07T19:27:42.778Z,986.7
2023-05-07T19:29:44.113Z,986.6
2023-05-07T19:33:47.256Z,986.7
2023-05-07T19:35:49.062Z,986.7
2023-05-07T19:39:52.310Z,986.7
2023-05-07T19:43:55.309Z,986.8
2023-05-07T19:45:57.160Z,986.9
2023-05-07T19:49:59.445Z,987
2023-05-07T19:54:02.235Z,987
2023-05-07T19:56:03.986Z,987
2023-05-07T20:00:06.771Z,987
2023-05-07T20:02:07.949Z,986.9
2023-05-07T20:04:09.363Z,986.9
2023-05-07T20:06:10.741Z,987
2023-05-07T20:10:13.649Z,987
2023-05-07T20:12:14.686Z,987
2023-05-07T20:14:16.241Z,987.1
2023-05-07T20:16:17.504Z,987
2023-05-07T20:18:18.844Z,987
2023-05-07T20:22:21.533Z,987.1
2023-05-07T20:26:24.234Z,987.2
2023-05-07T20:28:25.742Z,987.3
2023-05-07T20:32:29.307Z,987.5
2023-05-07T20:36:32.845Z,987.7
2023-05-07T20:38:33.766Z,987.6
2023-05-07T20:42:36.311Z,987.6
2023-05-07T20:44:38.135Z,987.6
2023-05-07T20:48:40.643Z,987.7
2023-05-07T20:52:43.922Z,987.7
2023-05-07T20:54:45.183Z,987.7
2023-05-07T20:58:48.019Z,987.7
2023-05-07T21:00:49.889Z,987.9
2023-05-07T21:05:37.088Z,987.9
2023-05-07T21:09:40.434Z,987.9
2023-05-07T21:11:41.956Z,987.9
2023-05-07T21:15:44.934Z,987.9
2023-05-07T21:19:47.322Z,987.9
2023-05-07T21:21:49.058Z,987.8
2023-05-07T21:25:52.250Z,987.9
2023-05-07T21:29:54.166Z,987.9
2023-05-07T21:31:55.762Z,987.9
2023-05-07T21:35:58.352Z,987.9
2023-05-07T21:37:59.925Z,988
2023-05-07T21:42:08.330Z,988
2023-05-07T21:46:05.612Z,988
2023-05-07T21:48:06.534Z,988
2023-05-07T21:52:09.756Z,988
2023-05-07T21:54:11.617Z,988
2023-05-07T21:58:14.204Z,988
2023-05-07T22:02:17.027Z,988.1
2023-05-07T22:04:18.760Z,988
2023-05-07T22:06:20.140Z,988.1
2023-05-07T22:08:21.148Z,988
2023-05-07T22:10:23.231Z,988.1
2023-05-07T22:14:26.110Z,988.1
2023-05-07T22:18:28.314Z,988.1
2023-05-07T22:20:29.592Z,988
2023-05-07T22:24:32.432Z,988.1
2023-05-07T22:26:33.834Z,988.1
2023-05-07T22:30:36.650Z,988.2
2023-05-07T22:34:40.104Z,988.2
2023-05-07T22:36:41.442Z,988.2
2023-05-07T22:40:44.719Z,988.2
2023-05-07T22:44:46.658Z,988.2
2023-05-07T22:46:47.940Z,988.2
2023-05-07T22:50:51.358Z,988.2
2023-05-07T22:52:52.377Z,988.1
2023-05-07T22:56:55.142Z,988.1
2023-05-07T23:00:57.865Z,988.1
2023-05-07T23:02:59.912Z,988.1
2023-05-07T23:07:02.623Z,988.1
2023-05-07T23:09:03.668Z,988.1
2023-05-07T23:13:05.920Z,988
2023-05-07T23:17:08.661Z,988
2023-05-07T23:19:09.513Z,987.9
2023-05-07T23:23:12.380Z,987.9
2023-05-07T23:27:15.351Z,987.9
2023-05-07T23:29:16.685Z,987.8
2023-05-07T23:33:19.501Z,987.9
2023-05-07T23:35:20.488Z,988
2023-05-07T23:39:23.286Z,988
2023-05-07T23:43:25.465Z,988
2023-05-07T23:45:26.948Z,988
2023-05-07T23:47:28.251Z,988
2023-05-07T23:49:30.028Z,987.9
2023-05-07T23:51:31.325Z,987.9
2023-05-07T23:55:33.898Z,987.8
2023-05-07T23:59:36.367Z,987.8
